Time;durP1;ratioP1;P1;durP2;ratioP2;P2;SDS_P1;SDS_P2;PMS_P1;PMS_P2;Temp;Humidity;BMP_temperature;BMP_pressure;BME280_temperature;BME280_humidity;BME280_pressure;Samples;Min_cycle;Max_cycle;Signal;HPM_P1;HPM_P2
2023/08/29 00:00:14;;;;;;;4.00;2.05;;;15.10;99.90;;;;;;4236276;28;20039;-81
2023/08/29 00:02:14;;;;;;;4.53;1.80;;;15.20;99.90;;;;;;4234770;28;20092;-81
2023/08/29 00:04:15;;;;;;;4.78;2.30;;;15.10;99.90;;;;;;4237715;28;20048;-81
2023/08/29 00:06:16;;;;;;;5.20;2.08;;;15.00;99.90;;;;;;4216366;28;20105;-81
2023/08/29 00:08:17;;;;;;;2.88;1.70;;;15.00;99.90;;;;;;4237128;28;20081;-81
2023/08/29 00:10:17;;;;;;;4.28;1.90;;;15.10;99.90;;;;;;4221394;28;20051;-82
2023/08/29 00:12:18;;;;;;;4.15;2.40;;;14.90;99.90;;;;;;4233634;28;20394;-82
2023/08/29 00:14:19;;;;;;;5.85;2.08;;;14.90;99.90;;;;;;4197234;28;20057;-81
2023/08/29 00:16:20;;;;;;;3.40;1.75;;;14.90;99.90;;;;;;4214565;28;20085;-81
2023/08/29 00:18:21;;;;;;;3.53;2.28;;;14.80;99.90;;;;;;4215982;28;20353;-82
2023/08/29 00:20:22;;;;;;;5.38;2.30;;;14.80;99.90;;;;;;4214310;28;20028;-81
2023/08/29 00:22:23;;;;;;;5.60;2.20;;;14.80;99.90;;;;;;4213081;28;20052;-82
2023/08/29 00:24:23;;;;;;;2.78;1.90;;;14.70;99.90;;;;;;4231668;28;20131;-82
2023/08/29 00:26:24;;;;;;;6.55;2.58;;;14.70;99.90;;;;;;4231379;28;20040;-81
2023/08/29 00:28:25;;;;;;;6.93;1.90;;;14.80;99.90;;;;;;4231128;28;20621;-81
2023/08/29 00:30:26;;;;;;;9.57;2.25;;;14.70;99.90;;;;;;4222196;28;20052;-82
2023/08/29 00:32:27;;;;;;;3.67;2.00;;;14.70;99.90;;;;;;4213978;28;20083;-82
2023/08/29 00:34:28;;;;;;;5.50;2.40;;;14.70;99.90;;;;;;4197458;28;20052;-81
2023/08/29 00:36:29;;;;;;;3.45;1.98;;;14.60;99.90;;;;;;4215217;28;20032;-81
2023/08/29 00:38:30;;;;;;;7.97;2.35;;;14.60;99.90;;;;;;4216384;28;20040;-81
2023/08/29 00:40:31;;;;;;;3.45;2.05;;;14.80;99.90;;;;;;4215109;28;20051;-81
2023/08/29 00:42:32;;;;;;;3.13;2.17;;;14.60;99.90;;;;;;4215506;28;20052;-80
2023/08/29 00:44:33;;;;;;;3.70;2.55;;;14.50;99.90;;;;;;4214885;28;20048;-82
2023/08/29 00:46:34;;;;;;;4.07;2.22;;;14.70;99.90;;;;;;4216413;28;20046;-81
2023/08/29 00:48:35;;;;;;;4.97;2.22;;;14.50;99.90;;;;;;4229632;28;20044;-81
2023/08/29 00:50:36;;;;;;;6.70;3.10;;;14.50;99.90;;;;;;4232302;28;20145;-82
2023/08/29 00:52:39;;;;;;;5.50;2.30;;;14.40;99.90;;;;;;4231901;28;20461;-81
2023/08/29 00:54:41;;;;;;;3.53;2.30;;;14.00;99.90;;;;;;4232987;28;20051;-82
2023/08/29 00:56:44;;;;;;;5.32;2.17;;;14.40;99.90;;;;;;4232505;28;20403;-82
2023/08/29 00:58:48;;;;;;;9.45;2.67;;;14.50;99.90;;;;;;4231076;28;20073;-82
2023/08/29 01:00:49;;;;;;;3.70;2.25;;;;;;;;;;4231808;28;20032;-81
2023/08/29 01:02:50;;;;;;;5.30;2.60;;;;;;;;;;4230623;28;20493;-82
2023/08/29 01:04:51;;;;;;;6.00;3.22;;;;;;;;;;4231886;28;20055;-82
2023/08/29 01:06:55;;;;;;;4.20;2.30;;;;;;;;;;4232491;28;20532;-82
2023/08/29 01:08:58;;;;;;;6.53;2.60;;;;;;;;;;4214000;28;20463;-82
2023/08/29 01:11:09;;;;;;;3.38;2.47;;;;;;;;;;4230706;28;20039;-82
2023/08/29 01:13:15;;;;;;;5.25;2.45;;;;;;;;;;4197737;27;1131211;-82
2023/08/29 01:15:23;;;;;;;4.57;2.10;;;;;;;;;;4231185;28;20075;-82
2023/08/29 01:17:54;;;;;;;5.38;2.50;;;;;;;;;;4249823;27;20436;-82
2023/08/29 01:19:55;;;;;;;5.35;2.78;;;;;;;;;;4217138;27;20059;-82
2023/08/29 01:21:57;;;;;;;4.93;3.00;;;;;;;;;;4237786;27;20043;-81
2023/08/29 01:24:10;;;;;;;4.63;2.60;;;;;;;;;;4232387;28;20039;-81
2023/08/29 01:26:15;;;;;;;4.72;3.25;;;;;;;;;;4239225;28;20061;-82
2023/08/29 01:28:16;;;;;;;5.75;2.80;;;;;;;;;;4245812;28;20109;-82
2023/08/29 01:30:18;;;;;;;4.20;2.47;;;;;;;;;;4218730;28;20044;-81
2023/08/29 01:32:19;;;;;;;4.05;2.30;;;;;;;;;;4217449;28;20044;-81
2023/08/29 01:34:20;;;;;;;5.38;2.25;;;;;;;;;;4216740;28;20058;-81
2023/08/29 01:36:21;;;;;;;6.30;3.10;;;;;;;;;;4233655;28;20526;-82
2023/08/29 01:38:23;;;;;;;5.20;3.05;;;;;;;;;;4236074;27;20055;-81
2023/08/29 01:40:24;;;;;;;5.03;2.50;;;;;;;;;;4214682;28;20119;-81
2023/08/29 01:42:25;;;;;;;5.82;2.90;;;;;;;;;;4232923;28;20475;-81
2023/08/29 01:44:26;;;;;;;4.93;2.80;;;;;;;;;;4232149;28;20130;-81
2023/08/29 01:46:27;;;;;;;6.07;2.60;;;;;;;;;;4213961;28;20044;-82
2023/08/29 01:48:28;;;;;;;4.68;2.50;;;;;;;;;;4232686;28;20041;-81
2023/08/29 01:50:31;;;;;;;4.28;2.60;;;;;;;;;;4231965;28;20090;-81
2023/08/29 01:52:32;;;;;;;7.25;2.30;;;14.30;99.90;;;;;;4197260;28;20489;-82
2023/08/29 01:54:33;;;;;;;4.50;2.25;;;13.80;99.90;;;;;;4217306;28;20118;-81
2023/08/29 01:56:35;;;;;;;5.10;2.28;;;13.70;99.90;;;;;;4223993;28;20048;-82
2023/08/29 01:58:38;;;;;;;5.00;2.67;;;13.70;99.90;;;;;;4215180;28;20050;-81
2023/08/29 02:00:40;;;;;;;3.88;2.08;;;13.70;99.90;;;;;;4213737;28;20149;-82
2023/08/29 02:02:41;;;;;;;6.47;2.17;;;13.80;99.90;;;;;;4248835;27;20043;-81
2023/08/29 02:04:42;;;;;;;6.28;2.13;;;;;;;;;;4249519;27;20423;-81
2023/08/29 02:06:42;;;;;;;3.95;2.35;;;13.60;99.90;;;;;;4230886;28;20051;-81
2023/08/29 02:08:44;;;;;;;5.68;2.40;;;13.60;99.90;;;;;;4248998;27;20407;-82
2023/08/29 02:10:45;;;;;;;6.13;3.05;;;13.50;99.90;;;;;;4249044;27;20075;-82
2023/08/29 02:12:46;;;;;;;6.50;2.30;;;13.60;99.90;;;;;;4242565;27;20027;-82
2023/08/29 02:14:47;;;;;;;5.00;2.30;;;13.70;99.90;;;;;;4230266;28;20051;-81
2023/08/29 02:16:48;;;;;;;4.75;2.20;;;13.40;99.90;;;;;;4248897;27;20121;-81
2023/08/29 02:18:49;;;;;;;5.45;2.70;;;13.50;99.90;;;;;;4249203;27;20042;-81
2023/08/29 02:20:49;;;;;;;7.53;2.30;;;13.40;99.90;;;;;;4247616;27;20074;-82
2023/08/29 02:22:50;;;;;;;3.83;2.40;;;13.40;99.90;;;;;;4213733;28;20052;-81
2023/08/29 02:24:52;;;;;;;6.13;2.50;;;;;;;;;;4197644;28;20448;-81
2023/08/29 02:26:53;;;;;;;5.20;1.95;;;;;;;;;;4231505;28;20053;-82
2023/08/29 02:28:55;;;;;;;3.97;2.45;;;13.40;99.90;;;;;;4235383;27;20402;-82
2023/08/29 02:31:02;;;;;;;4.45;2.35;;;13.30;99.90;;;;;;4231778;28;20069;-82
2023/08/29 02:33:04;;;;;;;4.15;2.33;;;13.40;99.90;;;;;;4231422;28;20474;-82
2023/08/29 02:35:06;;;;;;;4.55;2.58;;;13.30;99.90;;;;;;4231151;28;20449;-81
2023/08/29 02:37:07;;;;;;;3.20;2.25;;;13.30;99.90;;;;;;4213046;28;20148;-82
2023/08/29 02:39:07;;;;;;;3.80;2.22;;;13.40;99.90;;;;;;4213235;28;20079;-82
2023/08/29 02:41:11;;;;;;;2.67;1.75;;;;;;;;;;4231502;28;20050;-82
2023/08/29 02:43:12;;;;;;;5.10;2.35;;;;;;;;;;4196904;28;20115;-82
2023/08/29 02:45:13;;;;;;;4.80;2.65;;;14.40;99.90;;;;;;4231552;28;20181;-82
2023/08/29 02:47:17;;;;;;;4.00;2.60;;;13.30;99.90;;;;;;4235074;28;20039;-82
2023/08/29 02:49:18;;;;;;;3.10;2.20;;;12.30;99.90;;;;;;4244965;28;20047;-82
2023/08/29 02:51:18;;;;;;;5.00;2.47;;;13.20;99.90;;;;;;4230033;28;20101;-82
2023/08/29 02:53:20;;;;;;;4.20;2.53;;;13.20;99.90;;;;;;4248220;28;20447;-81
2023/08/29 02:55:21;;;;;;;3.90;2.30;;;13.10;99.90;;;;;;4248151;28;20089;-81
2023/08/29 02:57:22;;;;;;;3.97;2.10;;;13.10;99.90;;;;;;4248450;28;20440;-82
2023/08/29 02:59:23;;;;;;;3.80;2.28;;;13.20;99.90;;;;;;4229912;28;20052;-81
2023/08/29 03:01:32;;;;;;;4.43;2.25;;;13.10;99.90;;;;;;4230153;28;20453;-81
2023/08/29 03:03:32;;;;;;;2.53;1.92;;;13.10;99.90;;;;;;4229502;28;20061;-82
2023/08/29 03:05:33;;;;;;;6.35;2.17;;;13.00;99.90;;;;;;4224249;28;20044;-82
2023/08/29 03:07:34;;;;;;;3.72;2.17;;;13.20;99.90;;;;;;4212852;28;20052;-81
2023/08/29 03:09:35;;;;;;;2.80;1.80;;;13.00;99.90;;;;;;4248105;28;20487;-81
2023/08/29 03:11:36;;;;;;;4.90;2.33;;;13.00;99.90;;;;;;4248163;28;20053;-82
2023/08/29 03:13:36;;;;;;;5.13;2.10;;;13.00;99.90;;;;;;4247875;27;20058;-82
2023/08/29 03:15:40;;;;;;;3.40;2.15;;;12.90;99.90;;;;;;4212727;28;20127;-81
2023/08/29 03:17:43;;;;;;;2.88;1.90;;;12.90;99.90;;;;;;4247875;28;20031;-81
2023/08/29 03:19:45;;;;;;;2.65;1.80;;;12.90;99.90;;;;;;4248239;28;20043;-81
2023/08/29 03:21:46;;;;;;;3.28;2.28;;;12.90;99.90;;;;;;4245838;28;20516;-81
2023/08/29 03:23:47;;;;;;;4.22;2.17;;;12.90;99.90;;;;;;4233720;28;20044;-81
2023/08/29 03:25:48;;;;;;;5.53;2.35;;;12.80;99.90;;;;;;4212963;28;20055;-81
2023/08/29 03:27:49;;;;;;;3.42;2.55;;;12.80;99.90;;;;;;4213412;28;20524;-81
2023/08/29 03:29:51;;;;;;;3.22;2.05;;;12.90;99.90;;;;;;4213192;28;20052;-81
2023/08/29 03:31:54;;;;;;;4.35;2.17;;;12.80;99.90;;;;;;4232891;28;20035;-81
2023/08/29 03:33:55;;;;;;;6.53;2.60;;;12.80;99.90;;;;;;4243811;28;20036;-81
2023/08/29 03:35:59;;;;;;;4.28;2.25;;;12.80;99.90;;;;;;4227917;28;20093;-80
2023/08/29 03:37:59;;;;;;;4.25;2.22;;;12.70;99.90;;;;;;4236107;28;20054;-81
2023/08/29 03:40:00;;;;;;;2.95;1.88;;;12.80;99.90;;;;;;4236234;28;20539;-81
2023/08/29 03:42:01;;;;;;;4.00;2.15;;;12.80;99.90;;;;;;4240789;28;20036;-81
2023/08/29 03:44:03;;;;;;;4.82;2.25;;;12.80;99.90;;;;;;4237405;28;20891;-83
2023/08/29 03:46:07;;;;;;;3.65;2.08;;;13.00;99.90;;;;;;4240743;28;20050;-82
2023/08/29 03:48:14;;;;;;;4.03;2.10;;;12.90;99.90;;;;;;4222486;28;20052;-81
2023/08/29 03:50:14;;;;;;;3.97;2.65;;;12.80;99.90;;;;;;4204350;28;20055;-81
2023/08/29 03:52:28;;;;;;;4.10;2.13;;;12.70;99.90;;;;;;4238510;28;20043;-82
2023/08/29 03:54:29;;;;;;;6.68;1.92;;;12.70;99.90;;;;;;4245305;28;20058;-82
2023/08/29 03:56:31;;;;;;;3.40;2.00;;;12.70;99.90;;;;;;4248641;28;20047;-81
2023/08/29 03:58:33;;;;;;;6.80;2.40;;;12.70;99.90;;;;;;4249111;27;20046;-81
2023/08/29 04:00:34;;;;;;;5.45;2.60;;;12.70;99.90;;;;;;4213593;28;20071;-81
2023/08/29 04:02:35;;;;;;;5.65;2.35;;;12.70;99.90;;;;;;4248187;28;20114;-81
2023/08/29 04:04:36;;;;;;;5.95;2.28;;;12.70;99.90;;;;;;4248756;28;20043;-81
2023/08/29 04:06:38;;;;;;;3.15;2.22;;;12.80;99.90;;;;;;4246985;28;20078;-82
2023/08/29 04:08:38;;;;;;;3.90;2.45;;;12.60;99.90;;;;;;4212831;28;20091;-81
2023/08/29 04:10:41;;;;;;;4.40;2.53;;;12.60;99.90;;;;;;4230563;28;20040;-81
2023/08/29 04:12:42;;;;;;;4.25;2.25;;;12.60;99.90;;;;;;4239816;28;20039;-82
2023/08/29 04:14:44;;;;;;;9.00;2.72;;;12.60;99.90;;;;;;4236750;28;20087;-81
2023/08/29 04:16:48;;;;;;;3.30;2.15;;;12.60;99.90;;;;;;4246171;27;20447;-82
2023/08/29 04:18:49;;;;;;;4.47;2.28;;;12.50;99.90;;;;;;4232299;28;20048;-81
2023/08/29 04:20:50;;;;;;;5.72;2.58;;;12.60;99.90;;;;;;4247785;27;20475;-82
2023/08/29 04:22:53;;;;;;;4.15;2.47;;;12.60;99.90;;;;;;4215950;28;20110;-82
2023/08/29 04:24:55;;;;;;;4.18;2.55;;;12.40;99.90;;;;;;4201418;28;20428;-81
2023/08/29 04:26:56;;;;;;;3.55;2.00;;;12.50;99.90;;;;;;4200692;28;20044;-83
2023/08/29 04:28:56;;;;;;;12.52;3.95;;;12.60;99.90;;;;;;4215401;28;20530;-81
2023/08/29 04:31:10;;;;;;;4.60;2.25;;;12.50;99.90;;;;;;4199191;28;20520;-82
2023/08/29 04:33:11;;;;;;;3.67;2.10;;;12.50;99.90;;;;;;4220194;28;20495;-82
2023/08/29 04:35:12;;;;;;;5.63;2.65;;;12.50;99.90;;;;;;4226814;28;20134;-81
2023/08/29 04:37:13;;;;;;;5.82;2.10;;;12.50;99.90;;;;;;4250832;27;20055;-82
2023/08/29 04:39:14;;;;;;;7.43;2.42;;;12.50;99.90;;;;;;4250578;27;20058;-82
2023/08/29 04:41:15;;;;;;;4.10;1.98;;;12.50;99.90;;;;;;4250412;27;20882;-81
2023/08/29 04:43:17;;;;;;;5.57;2.42;;;12.40;99.90;;;;;;4252126;27;20039;-81
2023/08/29 04:45:19;;;;;;;4.18;2.00;;;12.50;99.90;;;;;;4217611;28;20054;-81
2023/08/29 04:47:23;;;;;;;4.57;2.05;;;12.40;99.90;;;;;;4233808;28;20531;-81
2023/08/29 04:49:24;;;;;;;6.13;2.22;;;12.40;99.90;;;;;;4232266;28;20086;-81
2023/08/29 04:51:24;;;;;;;5.55;2.15;;;12.40;99.90;;;;;;4242290;27;20039;-82
2023/08/29 04:53:25;;;;;;;4.30;2.38;;;12.40;99.90;;;;;;4198200;28;20040;-82
2023/08/29 04:55:26;;;;;;;3.33;2.60;;;12.40;99.90;;;;;;4232335;28;20058;-82
2023/08/29 04:57:27;;;;;;;5.80;3.00;;;12.40;99.90;;;;;;4232183;28;20051;-82
2023/08/29 04:59:28;;;;;;;5.38;2.75;;;12.50;99.90;;;;;;4197556;28;20505;-81
2023/08/29 05:01:28;;;;;;;4.82;2.72;;;12.40;99.90;;;;;;4239308;27;20118;-81
2023/08/29 05:03:29;;;;;;;7.20;3.28;;;12.30;99.90;;;;;;4231717;28;20055;-81
2023/08/29 05:05:30;;;;;;;4.72;2.60;;;12.40;99.90;;;;;;4249786;27;20039;-81
2023/08/29 05:07:32;;;;;;;3.72;2.40;;;12.30;99.90;;;;;;4247197;27;20104;-81
2023/08/29 05:09:33;;;;;;;5.03;2.80;;;12.40;99.90;;;;;;4246433;27;20039;-82
2023/08/29 05:11:33;;;;;;;4.38;2.85;;;12.30;99.90;;;;;;4249158;27;20061;-81
2023/08/29 05:13:34;;;;;;;5.03;2.63;;;12.30;99.90;;;;;;4249374;27;20119;-81
2023/08/29 05:15:35;;;;;;;4.45;2.78;;;12.40;99.90;;;;;;4249561;27;20047;-81
2023/08/29 05:17:36;;;;;;;3.70;2.25;;;12.40;99.90;;;;;;4243459;27;20039;-80
2023/08/29 05:19:37;;;;;;;7.20;3.28;;;12.30;99.90;;;;;;4235029;27;20039;-80
2023/08/29 05:21:38;;;;;;;4.70;2.50;;;12.30;99.90;;;;;;4248897;27;20039;-82
2023/08/29 05:23:39;;;;;;;4.65;2.55;;;12.40;99.90;;;;;;4249216;27;20046;-82
2023/08/29 05:25:40;;;;;;;3.63;2.60;;;12.40;99.90;;;;;;4249154;27;20491;-81
2023/08/29 05:27:41;;;;;;;6.35;2.50;;;12.30;99.90;;;;;;4249525;27;20047;-81
2023/08/29 05:29:42;;;;;;;5.30;2.50;;;12.30;99.90;;;;;;4213781;28;20069;-81
2023/08/29 05:31:42;;;;;;;5.55;3.10;;;13.40;99.90;;;;;;4214077;28;20044;-81
2023/08/29 05:33:43;;;;;;;14.43;3.85;;;12.30;99.90;;;;;;4243016;27;20081;-81
2023/08/29 05:35:44;;;;;;;5.47;2.42;;;12.50;99.90;;;;;;4231029;28;20054;-81
2023/08/29 05:37:45;;;;;;;4.20;2.42;;;12.40;99.90;;;;;;4248934;27;20039;-81
2023/08/29 05:39:46;;;;;;;3.92;2.60;;;12.40;99.90;;;;;;4248986;27;20532;-81
2023/08/29 05:41:46;;;;;;;6.78;2.65;;;12.50;99.90;;;;;;4248794;27;20039;-81
2023/08/29 05:43:47;;;;;;;5.68;2.60;;;12.70;99.90;;;;;;4248993;27;20460;-80
2023/08/29 05:45:48;;;;;;;4.10;2.90;;;12.60;99.90;;;;;;4248821;27;20086;-81
2023/08/29 05:47:49;;;;;;;5.82;3.00;;;12.60;99.90;;;;;;4248755;27;20043;-81
2023/08/29 05:49:49;;;;;;;7.95;3.05;;;12.70;99.90;;;;;;4248688;27;20464;-81
2023/08/29 05:51:50;;;;;;;6.63;2.78;;;12.80;99.90;;;;;;4228611;28;20036;-82
2023/08/29 05:53:51;;;;;;;4.18;2.65;;;12.70;99.90;;;;;;4232675;27;20043;-81
2023/08/29 05:55:52;;;;;;;6.03;2.80;;;12.90;99.90;;;;;;4213222;28;20391;-81
2023/08/29 05:57:52;;;;;;;7.00;2.80;;;12.80;99.90;;;;;;4231471;28;20066;-81
2023/08/29 05:59:53;;;;;;;5.80;2.75;;;12.80;99.90;;;;;;4196852;28;20101;-82
2023/08/29 06:01:54;;;;;;;4.57;2.58;;;12.90;99.90;;;;;;4213464;28;20040;-83
2023/08/29 06:03:55;;;;;;;4.72;2.97;;;12.30;99.90;;;;;;4213510;28;20053;-82
2023/08/29 06:05:56;;;;;;;5.60;2.70;;;12.90;99.90;;;;;;4231539;28;20376;-82
2023/08/29 06:07:57;;;;;;;5.53;2.80;;;13.00;99.90;;;;;;4214616;28;20548;-82
2023/08/29 06:09:58;;;;;;;7.13;2.80;;;13.10;99.90;;;;;;4208764;28;20087;-81
2023/08/29 06:12:02;;;;;;;6.43;2.60;;;13.10;99.90;;;;;;4248763;27;20051;-82
2023/08/29 06:14:03;;;;;;;4.57;2.70;;;13.20;99.90;;;;;;4230026;28;20051;-81
2023/08/29 06:16:04;;;;;;;5.57;2.75;;;13.30;99.90;;;;;;4231425;28;20080;-84
2023/08/29 06:18:05;;;;;;;2.78;2.03;;;13.40;99.90;;;;;;4231657;28;20054;-83
2023/08/29 06:20:08;;;;;;;3.95;2.08;;;13.50;99.90;;;;;;4231307;28;20036;-83
2023/08/29 06:22:09;;;;;;;4.20;2.30;;;13.70;99.90;;;;;;4231279;28;20042;-84
2023/08/29 06:24:10;;;;;;;4.00;2.38;;;13.70;99.90;;;;;;4228228;28;20044;-85
2023/08/29 06:26:11;;;;;;;2.55;1.95;;;13.90;99.90;;;;;;4214830;28;20048;-84
2023/08/29 06:28:12;;;;;;;5.45;2.33;;;14.00;99.90;;;;;;4214200;28;20055;-83
2023/08/29 06:30:14;;;;;;;5.10;2.28;;;15.30;99.90;;;;;;4225434;28;20105;-83
2023/08/29 06:32:15;;;;;;;2.97;2.05;;;14.20;99.90;;;;;;4214957;28;20051;-84
2023/08/29 06:34:16;;;;;;;6.53;2.17;;;14.30;99.90;;;;;;4214501;28;20043;-84
2023/08/29 06:36:17;;;;;;;4.97;1.95;;;14.40;99.90;;;;;;4214885;28;20047;-83
2023/08/29 06:38:17;;;;;;;2.38;1.70;;;14.70;99.90;;;;;;4213247;28;20048;-84
2023/08/29 06:40:18;;;;;;;3.42;1.80;;;14.70;99.90;;;;;;4212722;28;20044;-84
2023/08/29 06:42:19;;;;;;;2.85;1.52;;;14.80;99.90;;;;;;4213453;28;20040;-84
2023/08/29 06:44:20;;;;;;;2.38;1.63;;;14.90;99.90;;;;;;4215387;28;20051;-84
2023/08/29 06:46:21;;;;;;;3.63;1.88;;;15.00;99.90;;;;;;4216210;28;20400;-84
2023/08/29 06:48:23;;;;;;;3.88;1.65;;;;;;;;;;4213397;28;20036;-84
2023/08/29 06:50:24;;;;;;;4.53;2.40;;;;;;;;;;4215486;28;20056;-84
2023/08/29 06:52:27;;;;;;;5.50;2.45;;;;;;;;;;4216401;28;20503;-84
2023/08/29 06:54:29;;;;;;;3.55;2.15;;;;;;;;;;4215107;28;20044;-83
2023/08/29 06:56:30;;;;;;;3.55;1.52;;;;;;;;;;4214331;28;20496;-83
2023/08/29 06:58:31;;;;;;;3.45;1.50;;;;;;;;;;4213362;28;20047;-84
2023/08/29 07:00:33;;;;;;;3.63;1.35;;;;;;;;;;4215051;28;20052;-84
2023/08/29 07:02:34;;;;;;;2.38;1.50;;;;;;;;;;4215008;28;20040;-83
2023/08/29 07:04:35;;;;;;;2.70;0.98;;;;;;;;;;4212760;28;20052;-84
2023/08/29 07:06:36;;;;;;;2.25;1.40;;;;;;;;;;4218108;28;20107;-83
2023/08/29 07:08:37;;;;;;;4.13;1.40;;;;;;;;;;4214285;28;20040;-83
2023/08/29 07:10:39;;;;;;;1.88;1.45;;;;;;;;;;4212833;28;20081;-82
2023/08/29 07:12:40;;;;;;;1.63;0.82;;;;;;;;;;4212590;28;20105;-82
2023/08/29 07:14:42;;;;;;;2.55;1.15;;;;;;;;;;4212386;28;20468;-83
2023/08/29 07:16:43;;;;;;;0.98;0.80;;;;;;;;;;4213048;28;20044;-82
2023/08/29 07:18:44;;;;;;;4.55;0.93;;;;;;;;;;4217901;28;20086;-83
2023/08/29 07:20:49;;;;;;;2.20;0.80;;;;;;;;;;4215429;28;20052;-83
2023/08/29 07:22:50;;;;;;;2.95;0.85;;;;;;;;;;4216473;28;20083;-83
2023/08/29 07:24:51;;;;;;;1.73;0.90;;;;;;;;;;4216046;28;20082;-83
2023/08/29 07:26:53;;;;;;;3.53;0.80;;;;;;;;;;4217887;28;20057;-83
2023/08/29 07:28:54;;;;;;;1.30;0.82;;;;;;;;;;4217725;28;20040;-83
2023/08/29 07:30:57;;;;;;;0.80;0.70;;;;;;;;;;4215737;28;20439;-84
2023/08/29 07:32:58;;;;;;;3.83;0.80;;;;;;;;;;4217707;28;20401;-82
2023/08/29 07:34:59;;;;;;;3.05;0.80;;;;;;;;;;4199482;28;20070;-82
2023/08/29 07:37:00;;;;;;;0.75;0.73;;;;;;;;;;4217247;28;20040;-82
2023/08/29 07:39:02;;;;;;;2.25;0.90;;;;;;;;;;4216024;28;20399;-82
2023/08/29 07:41:03;;;;;;;1.35;1.00;;;15.20;99.90;;;;;;4216820;28;20044;-83
2023/08/29 07:43:06;;;;;;;1.65;0.63;;;18.00;99.90;;;;;;4216997;28;20086;-83
2023/08/29 07:45:08;;;;;;;0.88;0.65;;;18.00;99.90;;;;;;4216257;28;20137;-83
2023/08/29 07:47:09;;;;;;;1.60;0.70;;;18.10;99.90;;;;;;4218096;28;20385;-83
2023/08/29 07:49:13;;;;;;;1.60;0.75;;;18.10;99.90;;;;;;4221130;28;20043;-83
2023/08/29 07:51:15;;;;;;;1.85;1.10;;;18.20;99.90;;;;;;4231395;28;20061;-83
2023/08/29 07:53:16;;;;;;;3.40;1.00;;;;;;;;;;4232240;28;20466;-83
2023/08/29 07:55:17;;;;;;;2.35;0.93;;;;;;;;;;4233543;28;20108;-83
2023/08/29 07:57:18;;;;;;;1.10;0.80;;;;;;;;;;4233995;28;20051;-83
2023/08/29 07:59:20;;;;;;;1.20;1.00;;;;;;;;;;4233655;28;20084;-83
2023/08/29 08:01:21;;;;;;;1.27;1.10;;;;;;;;;;4232588;28;20606;-83
2023/08/29 08:03:22;;;;;;;1.75;1.10;;;;;;;;;;4233937;28;20043;-83
2023/08/29 08:05:24;;;;;;;1.33;1.10;;;;;;;;;;4233644;28;20119;-82
2023/08/29 08:07:25;;;;;;;1.40;1.00;;;;;;;;;;4232642;28;20042;-83
2023/08/29 08:09:26;;;;;;;2.15;1.38;;;;;;;;;;4233653;28;20046;-82
2023/08/29 08:11:27;;;;;;;1.40;1.00;;;;;;;;;;4232183;28;20075;-83
2023/08/29 08:13:28;;;;;;;4.63;1.00;;;;;;;;;;4237434;27;20390;-83
2023/08/29 08:15:29;;;;;;;2.30;1.77;;;;;;;;;;4231827;28;20090;-83
2023/08/29 08:17:31;;;;;;;1.13;1.02;;;;;;;;;;4250173;27;20102;-84
2023/08/29 08:19:33;;;;;;;2.15;0.98;;;;;;;;;;4250109;27;20075;-83
2023/08/29 08:21:34;;;;;;;1.58;1.27;;;;;;;;;;4250183;27;20043;-84
2023/08/29 08:23:36;;;;;;;2.00;1.10;;;;;;;;;;4232084;28;20044;-84
2023/08/29 08:25:37;;;;;;;2.58;1.10;;;;;;;;;;4250227;27;20050;-84
2023/08/29 08:27:42;;;;;;;3.00;1.27;;;;;;;;;;4214953;28;20048;-84
2023/08/29 08:29:43;;;;;;;4.28;1.50;;;;;;;;;;4250236;27;20096;-82
2023/08/29 08:31:44;;;;;;;2.67;1.00;;;;;;;;;;4231706;28;20543;-84
2023/08/29 08:33:46;;;;;;;1.05;0.80;;;;;;;;;;4250332;27;20039;-84
2023/08/29 08:35:47;;;;;;;1.50;1.05;;;;;;;;;;4250298;27;20063;-84
2023/08/29 08:37:48;;;;;;;1.88;0.90;;;;;;;;;;4215309;28;20063;-83
2023/08/29 08:39:49;;;;;;;1.50;1.00;;;;;;;;;;4231613;28;20047;-83
2023/08/29 08:41:52;;;;;;;1.98;1.00;;;;;;;;;;4250147;27;20567;-82
2023/08/29 08:43:55;;;;;;;3.30;1.40;;;;;;;;;;4232010;28;20492;-82
2023/08/29 08:45:57;;;;;;;2.90;1.30;;;;;;;;;;4232271;28;20055;-82
2023/08/29 08:48:02;;;;;;;2.40;1.15;;;;;;;;;;4231876;28;20144;-83
2023/08/29 08:50:08;;;;;;;1.48;0.90;;;;;;;;;;4232054;28;20521;-83
2023/08/29 08:52:11;;;;;;;2.25;0.60;;;;;;;;;;4249634;27;20039;-83
2023/08/29 08:54:13;;;;;;;1.80;0.77;;;;;;;;;;4231926;28;20047;-82
2023/08/29 08:56:14;;;;;;;1.58;0.80;;;;;;;;;;4247843;27;20159;-83
2023/08/29 08:58:16;;;;;;;1.70;0.90;;;;;;;;;;4220211;28;20574;-85
2023/08/29 09:00:18;;;;;;;0.98;0.93;;;;;;;;;;4232528;28;20470;-84
2023/08/29 09:02:19;;;;;;;2.00;0.75;;;;;;;;;;4232868;28;20040;-84
2023/08/29 09:04:22;;;;;;;1.92;0.77;;;;;;;;;;4214500;28;20047;-83
2023/08/29 09:06:23;;;;;;;1.00;0.90;;;;;;;;;;4231961;28;20047;-84
2023/08/29 09:08:25;;;;;;;1.60;0.90;;;;;;;;;;4220605;28;20055;-84
2023/08/29 09:10:26;;;;;;;1.17;1.00;;;;;;;;;;4249389;27;20491;-84
2023/08/29 09:12:27;;;;;;;1.13;0.70;;;;;;;;;;4214583;28;20043;-84
2023/08/29 09:14:29;;;;;;;2.75;0.73;;;;;;;;;;4220050;28;20060;-84
2023/08/29 09:16:30;;;;;;;0.80;0.70;;;;;;;;;;4231981;28;20039;-83
2023/08/29 09:18:31;;;;;;;1.45;0.70;;;;;;;;;;4232525;28;20387;-83
2023/08/29 09:20:33;;;;;;;1.77;0.57;;;18.20;99.90;;;;;;4236168;27;20364;-82
2023/08/29 09:22:34;;;;;;;0.82;0.50;;;;;;;;;;4260626;27;20095;-81
2023/08/29 09:24:35;;;;;;;1.77;0.50;;;;;;;;;;4261610;27;20548;-83
2023/08/29 09:26:36;;;;;;;0.90;0.70;;;;;;;;;;4253374;27;20376;-82
2023/08/29 09:28:38;;;;;;;0.75;0.70;;;;;;;;;;4221438;28;20122;-83
2023/08/29 09:30:41;;;;;;;0.82;0.50;;;;;;;;;;4225084;28;20092;-82
2023/08/29 09:32:44;;;;;;;1.77;0.60;;;;;;;;;;4233078;28;20047;-83
2023/08/29 09:34:45;;;;;;;1.85;0.98;;;;;;;;;;4214811;28;20482;-82
2023/08/29 09:36:46;;;;;;;0.88;0.55;;;;;;;;;;4249643;27;20035;-83
2023/08/29 09:38:47;;;;;;;1.30;0.60;;;;;;;;;;4248803;27;20822;-83
2023/08/29 09:40:49;;;;;;;1.70;0.80;;;21.00;99.90;;;;;;4252036;27;20112;-84
2023/08/29 09:42:54;;;;;;;1.10;0.63;;;;;;;;;;4247273;27;20053;-84
2023/08/29 09:44:55;;;;;;;1.90;0.90;;;;;;;;;;4236411;27;20044;-84
2023/08/29 09:46:58;;;;;;;1.80;1.00;;;;;;;;;;4235819;28;20035;-83
2023/08/29 09:49:00;;;;;;;1.30;1.00;;;;;;;;;;4245955;27;20391;-84
2023/08/29 09:51:09;;;;;;;1.88;1.15;;;;;;;;;;4250752;27;20055;-83
2023/08/29 09:53:13;;;;;;;0.82;0.80;;;;;;;;;;4207257;28;20505;-84
2023/08/29 09:55:16;;;;;;;2.63;0.70;;;;;;;;;;4233744;28;20545;-84
2023/08/29 09:57:24;;;;;;;1.23;0.90;;;21.60;99.90;;;;;;4218639;28;20035;-84
2023/08/29 09:59:27;;;;;;;6.20;1.13;;;;;;;;;;4250206;27;20605;-83
2023/08/29 10:01:29;;;;;;;1.30;0.88;;;22.10;99.90;;;;;;4232220;27;20050;-83
2023/08/29 10:03:30;;;;;;;2.53;1.10;;;22.40;99.90;;;;;;4214057;28;20083;-83
2023/08/29 10:05:34;;;;;;;1.90;1.00;;;22.60;99.90;;;;;;4216957;28;20050;-83
2023/08/29 10:07:46;;;;;;;2.63;1.40;;;22.60;99.90;;;;;;4232069;28;20055;-83
2023/08/29 10:09:48;;;;;;;1.60;1.05;;;22.70;99.90;;;;;;4213798;28;20545;-83
2023/08/29 10:11:50;;;;;;;4.43;1.45;;;23.50;99.90;;;;;;4232837;27;20372;-83
2023/08/29 10:13:51;;;;;;;1.80;0.88;;;22.80;99.90;;;;;;4231402;28;20059;-84
2023/08/29 10:15:53;;;;;;;2.10;1.10;;;23.40;99.90;;;;;;4247834;27;20058;-84
2023/08/29 10:17:55;;;;;;;1.38;0.82;;;22.80;99.90;;;;;;4248343;27;20027;-84
2023/08/29 10:19:59;;;;;;;3.25;1.13;;;22.90;99.90;;;;;;4230050;28;20601;-84
2023/08/29 10:22:01;;;;;;;2.92;1.73;;;22.80;99.90;;;;;;4230789;28;20039;-84
2023/08/29 10:24:03;;;;;;;1.55;0.90;;;22.80;99.90;;;;;;4235786;27;20507;-83
2023/08/29 10:26:05;;;;;;;1.85;0.85;;;22.90;99.90;;;;;;4213976;28;20051;-83
2023/08/29 10:28:09;;;;;;;2.05;1.30;;;23.10;99.90;;;;;;4238054;27;20558;-83
2023/08/29 10:30:11;;;;;;;2.95;0.90;;;23.00;99.90;;;;;;4243504;27;20073;-83
2023/08/29 10:32:12;;;;;;;2.15;1.40;;;23.00;99.90;;;;;;4246505;27;20036;-83
2023/08/29 10:34:19;;;;;;;2.95;1.52;;;23.10;99.90;;;;;;4221116;28;20047;-83
2023/08/29 10:36:20;;;;;;;3.63;1.35;;;22.80;99.90;;;;;;4239783;27;20496;-83
2023/08/29 10:38:24;;;;;;;1.90;1.25;;;22.90;99.90;;;;;;4233346;28;20221;-83
2023/08/29 10:40:33;;;;;;;2.90;1.38;;;22.80;99.90;;;;;;4234789;28;20035;-82
2023/08/29 10:43:03;;;;;;;2.03;1.00;;;23.00;99.90;;;;;;4220114;28;20035;-83
2023/08/29 10:45:07;;;;;;;4.32;1.00;;;23.00;99.90;;;;;;4253821;27;20043;-80
2023/08/29 10:47:26;;;;;;;1.52;1.05;;;23.10;99.90;;;;;;4255303;28;20051;-83
2023/08/29 10:49:43;;;;;;;3.30;1.40;;;23.30;99.90;;;;;;4232735;28;20070;-83
2023/08/29 10:52:10;;;;;;;2.47;1.25;;;23.60;99.90;;;;;;4222647;28;20055;-83
2023/08/29 10:54:12;;;;;;;2.67;1.02;;;23.90;99.90;;;;;;4251756;27;20054;-83
2023/08/29 10:56:14;;;;;;;2.60;1.33;;;24.20;99.90;;;;;;4233769;28;20046;-83
2023/08/29 10:58:36;;;;;;;1.73;1.00;;;24.40;99.90;;;;;;4251502;27;20088;-84
2023/08/29 11:00:39;;;;;;;3.17;0.85;;;24.70;99.90;;;;;;4247357;27;20062;-83
2023/08/29 11:02:41;;;;;;;1.42;1.00;;;25.10;99.90;;;;;;4246088;27;20039;-82
2023/08/29 11:04:42;;;;;;;1.52;0.98;;;25.60;99.90;;;;;;4217656;28;20122;-83
2023/08/29 11:06:56;;;;;;;2.22;1.00;;;25.80;99.90;;;;;;4247194;27;20101;-83